Time;durP1;ratioP1;P1;durP2;ratioP2;P2;SDS_P1;SDS_P2;PMS_P1;PMS_P2;Temp;Humidity;BMP_temperature;BMP_pressure;BME280_temperature;BME280_humidity;BME280_pressure;Samples;Min_cycle;Max_cycle;Signal;HPM_P1;HPM_P2
2021/01/31 00:00:55;;;;;;;18.40;13.18;;;;;;;0.02;100.00;97139.80;1665337;85;21099;-69
2021/01/31 00:03:26;;;;;;;19.25;13.05;;;;;;;-0.02;100.00;97147.54;1657935;85;21374;-69
2021/01/31 00:06:02;;;;;;;19.12;13.25;;;;;;;-0.04;100.00;97150.98;1675885;84;21583;-69
2021/01/31 00:08:32;;;;;;;17.90;13.05;;;;;;;-0.10;100.00;97155.72;1656521;85;20970;-70
2021/01/31 00:11:02;;;;;;;18.20;13.25;;;;;;;-0.15;100.00;97146.20;1657261;85;20970;-70
2021/01/31 00:13:32;;;;;;;18.02;12.82;;;;;;;-0.21;100.00;97141.86;1684370;84;21513;-70
2021/01/31 00:16:01;;;;;;;19.15;13.90;;;;;;;-0.24;100.00;97157.82;1657982;85;21368;-71
2021/01/31 00:18:31;;;;;;;18.35;12.68;;;;;;;-0.26;100.00;97168.18;1679954;84;20973;-70
2021/01/31 00:21:02;;;;;;;18.27;12.23;;;;;;;-0.29;100.00;97175.07;1663721;85;21528;-70
2021/01/31 00:23:32;;;;;;;16.00;11.60;;;;;;;-0.38;100.00;97193.59;1656540;85;21084;-69
2021/01/31 00:26:04;;;;;;;14.80;11.00;;;;;;;-0.49;100.00;97204.72;1660795;85;21512;-69
2021/01/31 00:28:34;;;;;;;14.93;10.78;;;;;;;-0.60;100.00;97198.19;1656544;85;21268;-69
2021/01/31 00:31:04;;;;;;;15.15;10.80;;;;;;;-0.65;100.00;97211.53;1660914;85;21151;-70
2021/01/31 00:33:33;;;;;;;15.95;11.15;;;;;;;-0.70;100.00;97224.45;1634920;86;21523;-70
2021/01/31 00:36:04;;;;;;;15.48;10.43;;;;;;;-0.78;100.00;97210.58;1632492;86;21519;-68
2021/01/31 00:38:37;;;;;;;14.23;10.75;;;;;;;-0.86;100.00;97196.72;1643531;85;21085;-70
2021/01/31 00:41:09;;;;;;;13.90;10.55;;;;;;;-0.93;100.00;97209.17;1648574;85;22147;-70
2021/01/31 00:43:39;;;;;;;11.28;8.63;;;;;;;-1.00;100.00;97222.46;1630650;85;21167;-70
2021/01/31 00:46:09;;;;;;;10.93;7.60;;;;;;;-1.08;100.00;97225.41;1632390;86;21538;-70
2021/01/31 00:48:39;;;;;;;12.20;7.78;;;;;;;-1.18;100.00;97222.30;1633511;85;21236;-70
2021/01/31 00:51:10;;;;;;;9.58;7.37;;;;;;;-1.28;100.00;97232.13;1648304;85;21090;-70
2021/01/31 00:53:40;;;;;;;11.63;7.67;;;;;;;-1.34;100.00;97227.77;1646984;85;22259;-70
2021/01/31 00:56:10;;;;;;;9.90;7.25;;;;;;;-1.40;100.00;97228.14;1648277;85;21121;-70
2021/01/31 00:58:45;;;;;;;10.38;7.65;;;;;;;-1.49;100.00;97225.00;1633697;86;21213;-70
2021/01/31 01:01:16;;;;;;;10.63;7.55;;;;;;;-1.53;100.00;97236.59;1631388;85;21218;-69
2021/01/31 01:03:47;;;;;;;9.60;7.35;;;;;;;-1.56;100.00;97256.81;1639916;85;21010;-69
2021/01/31 01:06:19;;;;;;;11.30;7.78;;;;;;;-1.60;100.00;97266.68;1647448;85;21580;-69
2021/01/31 01:08:49;;;;;;;10.08;7.50;;;;;;;-1.63;100.00;97264.92;1648338;85;21198;-69
2021/01/31 01:11:19;;;;;;;10.20;7.47;;;;;;;-1.64;100.00;97280.42;1648478;85;21089;-69
2021/01/31 01:13:55;;;;;;;9.28;7.20;;;;;;;-1.65;100.00;97278.27;1634594;85;21561;-69
2021/01/31 01:16:25;;;;;;;11.12;7.58;;;;;;;-1.66;100.00;97289.45;1631268;86;21584;-69
2021/01/31 01:18:56;;;;;;;9.58;7.37;;;;;;;-1.64;100.00;97290.34;1640354;85;21241;-69
2021/01/31 01:21:26;;;;;;;11.05;7.67;;;;;;;-1.65;100.00;97309.70;1631121;86;21606;-68
2021/01/31 01:23:55;;;;;;;11.70;8.60;;;;;;;-1.67;100.00;97324.33;1631328;86;21601;-68
2021/01/31 01:26:29;;;;;;;11.50;8.28;;;;;;;-1.69;100.00;97310.52;1632197;86;21186;-68
2021/01/31 01:28:59;;;;;;;11.05;8.00;;;;;;;-1.72;100.00;97300.14;1631149;86;21150;-70
2021/01/31 01:31:32;;;;;;;10.38;7.87;;;;;;;-1.73;100.00;97310.04;1643301;85;21396;-69
2021/01/31 01:34:06;;;;;;;10.70;8.35;;;;;;;-1.74;100.00;97322.09;1636352;85;21613;-70
2021/01/31 01:36:35;;;;;;;10.08;8.08;;;;;;;-1.78;100.00;97351.34;1632222;86;21060;-70
2021/01/31 01:39:05;;;;;;;10.68;7.97;;;;;;;-1.77;100.00;97354.79;1631162;86;21199;-70
2021/01/31 01:41:42;;;;;;;11.15;8.25;;;;;;;-1.81;100.00;97355.59;1631248;86;21624;-71
2021/01/31 01:44:12;;;;;;;11.08;7.20;;;;;;;-1.82;100.00;97343.52;1631072;86;21228;-71
2021/01/31 01:46:47;;;;;;;12.00;8.03;;;;;;;-1.87;100.00;97330.55;1637230;85;21126;-71
2021/01/31 01:49:30;;;;;;;11.33;7.67;;;;;;;-1.88;100.00;97352.48;1615553;87;21180;-71
2021/01/31 01:52:19;;;;;;;10.50;7.85;;;;;;;-1.94;100.00;97380.38;1669435;85;21076;-71
2021/01/31 01:54:59;;;;;;;10.95;7.87;;;;;;;-1.97;100.00;97368.70;1675485;84;21203;-70
2021/01/31 01:57:43;;;;;;;10.88;6.83;;;;;;;-1.99;100.00;97342.84;1663492;85;22403;-70
2021/01/31 02:00:14;;;;;;;9.33;7.03;;;;;;;-1.99;100.00;97399.68;1673932;84;21120;-71
2021/01/31 02:02:57;;;;;;;9.50;6.77;;;;;;;-1.95;100.00;97396.72;1674324;84;21120;-70
2021/01/31 02:05:28;;;;;;;8.45;6.80;;;;;;;-1.94;100.00;97381.66;1664184;84;21168;-71
2021/01/31 02:08:00;;;;;;;7.92;6.28;;;;;;;-1.95;100.00;97387.67;1674538;84;21492;-70
2021/01/31 02:10:30;;;;;;;10.43;6.85;;;;;;;-1.96;100.00;97392.39;1674078;84;21225;-70
2021/01/31 02:13:02;;;;;;;10.10;7.35;;;;;;;-2.01;100.00;97394.91;1673844;84;20986;-69
2021/01/31 02:15:34;;;;;;;10.70;7.15;;;;;;;-2.05;100.00;97402.17;1673779;84;21508;-69
2021/01/31 02:18:31;;;;;;;9.08;6.42;;;;;;;-2.06;100.00;97408.61;1664927;85;21598;-70
2021/01/31 02:21:20;;;;;;;8.40;6.50;;;;;;;-2.09;100.00;97399.52;1664009;83;21183;-69
2021/01/31 02:24:09;;;;;;;8.50;6.22;;;;;;;-2.14;100.00;97408.91;1673953;84;21353;-67
2021/01/31 02:27:19;;;;;;;8.15;6.00;;;;;;;-2.18;100.00;97413.59;1673829;84;21610;-69
2021/01/31 02:30:44;;;;;;;8.10;6.20;;;;;;;-2.20;100.00;97413.98;1674073;84;20953;-68
2021/01/31 02:33:46;;;;;;;6.72;5.20;;;;;;;-2.19;100.00;97426.92;1674093;84;20974;-70
2021/01/31 02:36:43;;;;;;;7.80;5.45;;;;;;;-2.20;100.00;97439.81;1681366;84;21528;-71
2021/01/31 02:39:35;;;;;;;7.95;5.78;;;;;;;-2.20;100.00;97448.86;1665217;85;22707;-72
2021/01/31 02:42:30;;;;;;;7.60;5.72;;;;;;;-2.23;100.00;97453.55;1672088;85;21595;-70
2021/01/31 02:45:23;;;;;;;8.90;5.97;;;;;;;-2.27;100.00;97453.05;1664339;85;20954;-69
2021/01/31 02:48:20;;;;;;;7.12;5.20;;;;;;;-2.29;100.00;97468.94;1670209;84;21151;-69
2021/01/31 02:51:14;;;;;;;7.53;6.00;;;;;;;-2.32;100.00;97472.77;1659379;84;21100;-68
2021/01/31 02:54:07;;;;;;;8.68;5.72;;;;;;;-2.40;100.00;97484.64;1656371;85;21397;-70
2021/01/31 02:56:48;;;;;;;7.62;5.78;;;;;;;-2.40;100.00;97489.80;1665462;84;21050;-69
2021/01/31 02:59:33;;;;;;;7.35;5.35;;;;;;;-2.41;100.00;97500.55;1655679;85;20981;-69
2021/01/31 03:02:11;;;;;;;6.42;5.40;;;;;;;-2.41;100.00;97506.14;1655938;85;20958;-69
2021/01/31 03:05:03;;;;;;;7.42;5.75;;;;;;;-2.38;100.00;97507.48;1658695;83;21104;-69
2021/01/31 03:07:44;;;;;;;8.50;6.33;;;;;;;-2.35;100.00;97516.19;1654602;85;22291;-67
2021/01/31 03:10:21;;;;;;;6.97;5.35;;;;;;;-2.31;100.00;97526.15;1661584;84;21171;-68
2021/01/31 03:13:09;;;;;;;6.62;5.35;;;;;;;-2.30;100.00;97536.51;1656282;84;21108;-70
2021/01/31 03:15:53;;;;;;;7.37;5.85;;;;;;;-2.26;100.00;97540.89;1663467;85;21115;-69
2021/01/31 03:18:36;;;;;;;7.95;6.00;;;;;;;-2.22;100.00;97540.52;1659879;85;21156;-69
2021/01/31 03:21:13;;;;;;;6.53;5.25;;;;;;;-2.22;100.00;97546.98;1674707;83;21228;-69
2021/01/31 03:24:00;;;;;;;9.35;5.65;;;;;;;-2.23;100.00;97552.98;1662989;84;21514;-68
2021/01/31 03:26:35;;;;;;;7.55;5.75;;;;;;;-2.26;100.00;97547.77;1654392;83;20963;-68
2021/01/31 03:29:05;;;;;;;8.20;5.85;;;;;;;-2.26;100.00;97551.64;1654960;85;21197;-68
2021/01/31 03:31:38;;;;;;;6.83;5.60;;;;;;;-2.25;100.00;97563.71;1655718;85;21613;-68
2021/01/31 03:34:10;;;;;;;9.38;6.35;;;;;;;-2.25;100.00;97575.33;1645540;84;21213;-68
2021/01/31 03:36:44;;;;;;;7.87;5.78;;;;;;;-2.23;100.00;97574.94;1676683;83;20987;-67
2021/01/31 03:39:13;;;;;;;8.33;6.05;;;;;;;-2.22;100.00;97577.55;1681211;83;20992;-68
2021/01/31 03:41:43;;;;;;;8.58;6.20;;;;;;;-2.24;100.00;97575.36;1675279;84;20938;-68
2021/01/31 03:44:13;;;;;;;7.50;5.62;;;;;;;-2.25;100.00;97594.28;1673032;83;21088;-68
2021/01/31 03:46:50;;;;;;;8.53;6.22;;;;;;;-2.25;100.00;97594.28;1675352;83;21466;-68
2021/01/31 03:49:27;;;;;;;7.75;5.30;;;;;;;-2.26;100.00;97588.67;1667420;83;21667;-69
2021/01/31 03:51:56;;;;;;;7.62;5.53;;;;;;;-2.31;100.00;97585.55;1696237;83;20982;-69
2021/01/31 03:54:26;;;;;;;7.35;5.72;;;;;;;-2.43;100.00;97587.86;1674235;84;21098;-70
2021/01/31 03:57:11;;;;;;;9.38;6.35;;;;;;;-2.48;100.00;97595.94;1682271;83;21091;-69
2021/01/31 03:59:50;;;;;;;7.67;5.53;;;;;;;-2.56;100.00;97597.95;1691606;84;22251;-68
2021/01/31 04:02:24;;;;;;;7.95;5.85;;;;;;;-2.57;100.00;97600.50;1667318;84;21178;-69
2021/01/31 04:04:54;;;;;;;6.67;5.47;;;;;;;-2.60;100.00;97603.02;1662645;84;21108;-69
2021/01/31 04:07:27;;;;;;;7.80;5.72;;;;;;;-2.62;100.00;97598.24;1661247;85;21257;-69
2021/01/31 04:09:56;;;;;;;6.78;5.58;;;;;;;-2.61;100.00;97605.15;1663198;85;21130;-69
2021/01/31 04:12:26;;;;;;;8.33;6.08;;;;;;;-2.60;100.00;97607.77;1669365;84;21392;-69
2021/01/31 04:15:37;;;;;;;9.20;6.55;;;;;;;-2.59;100.00;97610.80;1669400;84;21150;-69
2021/01/31 04:18:07;;;;;;;8.20;5.72;;;;;;;-2.59;100.00;97615.95;1684112;83;21584;-68
2021/01/31 04:20:36;;;;;;;7.60;6.03;;;;;;;-2.60;100.00;97624.96;1669167;84;21196;-69
2021/01/31 04:23:06;;;;;;;8.33;6.15;;;;;;;-2.59;100.00;97625.41;1676074;82;21152;-67
2021/01/31 04:25:35;;;;;;;8.28;5.92;;;;;;;-2.58;100.00;97625.44;1682330;83;21381;-69
2021/01/31 04:28:09;;;;;;;9.85;6.45;;;;;;;-2.59;100.00;97624.98;1681808;82;21162;-67
2021/01/31 04:30:40;;;;;;;8.23;6.42;;;;;;;-2.62;100.00;97638.25;1669931;84;21128;-69
2021/01/31 04:33:10;;;;;;;8.83;6.05;;;;;;;-2.64;100.00;97652.84;1677824;82;21595;-68
2021/01/31 04:35:39;;;;;;;8.68;6.20;;;;;;;-2.63;100.00;97664.48;1704020;82;20942;-68
2021/01/31 04:38:11;;;;;;;9.83;6.15;;;;;;;-2.62;100.00;97663.65;1688148;82;21382;-68
2021/01/31 04:40:41;;;;;;;8.18;5.80;;;;;;;-2.60;100.00;97668.42;1669047;84;21106;-68
2021/01/31 04:43:16;;;;;;;8.20;5.65;;;;;;;-2.61;100.00;97669.27;1697951;82;20948;-67
2021/01/31 04:45:47;;;;;;;7.65;5.30;;;;;;;-2.63;99.71;97673.94;1674316;84;21148;-68
2021/01/31 04:48:29;;;;;;;9.98;6.17;;;;;;;-2.64;99.48;97680.81;1663925;84;21543;-68
2021/01/31 04:51:22;;;;;;;9.13;5.90;;;;;;;-2.59;99.32;97679.20;1809635;76;26707;-69
2021/01/31 04:54:16;;;;;;;8.50;6.15;;;;;;;-2.64;99.19;97686.39;1725002;81;21100;-70
2021/01/31 04:57:15;;;;;;;8.55;5.58;;;;;;;-2.63;99.17;97689.42;1711386;82;21264;-70
2021/01/31 04:59:50;;;;;;;8.08;5.97;;;;;;;-2.60;99.23;97694.23;1725020;81;21104;-71
2021/01/31 05:02:40;;;;;;;8.03;6.10;;;;;;;-2.55;99.17;97691.33;1713107;82;20993;-70
2021/01/31 05:05:29;;;;;;;9.30;6.15;;;;;;;-2.57;99.05;97693.43;1724854;81;21021;-72
2021/01/31 05:08:00;;;;;;;7.67;5.72;;;;;;;-2.58;98.98;97692.98;1738098;81;20949;-71
2021/01/31 05:10:29;;;;;;;8.63;5.87;;;;;;;-2.57;99.00;97703.76;1756769;79;22166;-70
2021/01/31 05:13:10;;;;;;;8.10;6.12;;;;;;;-2.55;98.94;97707.24;1735781;82;20962;-70
2021/01/31 05:15:48;;;;;;;7.85;5.53;;;;;;;-2.59;98.61;97716.63;1744022;82;21560;-70
2021/01/31 05:18:17;;;;;;;6.25;5.00;;;;;;;-2.62;98.50;97720.44;1770709;79;21029;-70
2021/01/31 05:20:49;;;;;;;8.45;5.67;;;;;;;-2.58;98.52;97730.41;1740117;81;21440;-70
2021/01/31 05:23:19;;;;;;;;;;;;;;;-2.56;98.51;97732.61;1771502;79;21408;-70
2021/01/31 05:25:51;;;;;;;6.67;4.87;;;;;;;-2.54;98.37;97733.09;1734471;81;20210;-70
2021/01/31 05:28:21;;;;;;;7.05;4.97;;;;;;;-2.50;98.21;97742.20;1755139;80;21363;-70
2021/01/31 05:30:50;;;;;;;8.00;5.70;;;;;;;-2.48;98.02;97745.69;1741922;81;21014;-69
2021/01/31 05:33:23;;;;;;;8.40;5.45;;;;;;;-2.46;97.77;97745.30;1724776;81;21021;-71
2021/01/31 05:35:56;;;;;;;11.97;6.75;;;;;;;-2.44;97.54;97757.41;1740374;82;21381;-70
2021/01/31 05:38:41;;;;;;;10.38;6.37;;;;;;;-2.43;97.32;97764.73;1711182;83;21096;-71
2021/01/31 05:41:46;;;;;;;17.37;9.58;;;;;;;-2.41;97.17;97769.09;1721427;82;21050;-71
2021/01/31 05:44:21;;;;;;;20.48;11.63;;;;;;;-2.34;97.22;97780.47;1723019;81;21045;-69
2021/01/31 05:46:59;;;;;;;17.12;10.08;;;;;;;-2.29;97.19;97782.31;1711397;82;21139;-68
2021/01/31 05:49:43;;;;;;;16.42;8.58;;;;;;;-2.23;97.13;97788.03;1713874;83;21257;-69
2021/01/31 05:52:27;;;;;;;14.07;8.20;;;;;;;-2.18;97.06;97795.88;1766894;79;20919;-70
2021/01/31 05:54:56;;;;;;;13.20;7.78;;;;;;;-2.14;96.98;97797.69;1712763;82;21633;-69
2021/01/31 05:57:33;;;;;;;17.52;10.50;;;;;;;-2.09;96.96;97806.41;1700943;82;20938;-69
2021/01/31 06:00:16;;;;;;;23.57;12.28;;;;;;;-2.03;96.96;97809.12;1711943;82;21476;-71
2021/01/31 06:03:05;;;;;;;17.27;9.45;;;;;;;-1.96;96.93;97810.59;1837151;76;23326;-69
2021/01/31 06:05:35;;;;;;;11.55;7.42;;;;;;;-1.94;96.82;97823.54;1805639;79;20978;-70
2021/01/31 06:08:11;;;;;;;13.32;7.70;;;;;;;-1.93;96.62;97821.41;1777705;80;22248;-70
2021/01/31 06:10:41;;;;;;;12.70;7.60;;;;;;;-1.91;96.44;97830.06;1777442;79;21472;-71
2021/01/31 06:13:16;;;;;;;10.78;7.37;;;;;;;-1.88;96.24;97840.92;1725118;81;21096;-71
2021/01/31 06:15:54;;;;;;;9.58;6.28;;;;;;;-1.89;96.04;97841.34;1736592;81;21582;-70
2021/01/31 06:18:30;;;;;;;8.85;6.75;;;;;;;-1.90;95.85;97849.48;1771198;79;21052;-71
2021/01/31 06:21:17;;;;;;;9.45;6.22;;;;;;;-1.86;95.76;97850.45;1734874;81;21008;-72
2021/01/31 06:23:50;;;;;;;11.73;7.40;;;;;;;-1.83;95.75;97856.98;1725144;83;21016;-72
2021/01/31 06:26:25;;;;;;;;;;;;;;;-1.80;95.64;97863.50;1727529;81;21029;-69
2021/01/31 06:29:01;;;;;;;12.55;7.87;;;;;;;-1.80;95.42;97868.67;1714855;82;20152;-72
2021/01/31 06:31:53;;;;;;;13.98;8.63;;;;;;;-1.78;95.41;97872.59;1708696;83;21737;-72
2021/01/31 06:34:23;;;;;;;12.60;8.55;;;;;;;-1.75;95.33;97867.06;1710996;82;21384;-71
2021/01/31 06:37:06;;;;;;;11.78;8.68;;;;;;;-1.73;95.21;97878.31;1714924;82;21083;-71
2021/01/31 06:39:47;;;;;;;16.00;8.63;;;;;;;-1.69;95.05;97885.70;1714873;82;21563;-72
2021/01/31 06:42:37;;;;;;;13.10;7.60;;;;;;;-1.69;94.84;97885.28;1762142;79;20946;-72
2021/01/31 06:45:20;;;;;;;9.93;7.08;;;;;;;-1.68;94.73;97883.16;1700822;81;21230;-71
2021/01/31 06:48:31;;;;;;;10.98;7.20;;;;;;;-1.69;94.37;97884.00;1744508;82;21438;-68
2021/01/31 06:51:42;;;;;;;10.68;6.72;;;;;;;-1.72;94.17;97895.98;1676318;82;20934;-69
2021/01/31 06:54:33;;;;;;;8.98;6.53;;;;;;;-1.76;94.03;97909.27;1763870;79;21053;-71
2021/01/31 06:57:17;;;;;;;11.88;6.45;;;;;;;-1.76;94.02;97907.97;1729254;80;21651;-70
2021/01/31 07:00:28;;;;;;;13.22;8.30;;;;;;;-1.72;93.95;97914.08;1725653;80;21054;-69
2021/01/31 07:03:32;;;;;;;20.62;11.95;;;;;;;-1.68;93.90;97920.64;1706668;81;21443;-71
2021/01/31 07:06:10;;;;;;;19.00;11.57;;;;;;;-1.64;93.80;97925.46;1716671;81;21073;-69
2021/01/31 07:09:11;;;;;;;14.35;9.08;;;;;;;-1.60;93.76;97926.85;1777547;78;20907;-71
2021/01/31 07:12:06;;;;;;;12.95;8.68;;;;;;;-1.57;93.66;97934.22;1797888;79;21473;-73
2021/01/31 07:14:55;;;;;;;19.82;11.50;;;;;;;-1.56;93.60;97931.67;1797796;78;21121;-71
2021/01/31 07:17:43;;;;;;;21.07;13.90;;;;;;;-1.49;93.73;97935.27;1790940;78;21416;-70
2021/01/31 07:20:19;;;;;;;23.52;14.60;;;;;;;-1.42;93.78;97941.02;1796102;79;21513;-71
2021/01/31 07:23:18;;;;;;;18.87;12.37;;;;;;;-1.35;93.76;97941.22;1721485;81;21592;-70
2021/01/31 07:25:51;;;;;;;18.15;12.25;;;;;;;-1.29;93.66;97949.52;1723567;82;20999;-70
2021/01/31 07:28:30;;;;;;;13.55;8.83;;;;;;;-1.24;93.33;97958.25;1784104;78;20907;-71
2021/01/31 07:31:19;;;;;;;13.43;9.08;;;;;;;-1.22;93.06;97960.88;1786277;79;21536;-71
2021/01/31 07:33:58;;;;;;;13.55;8.88;;;;;;;-1.18;92.84;97972.61;1787997;79;21027;-70
2021/01/31 07:36:43;;;;;;;13.55;8.93;;;;;;;-1.14;92.58;97974.84;1780705;79;21609;-70
2021/01/31 07:39:20;;;;;;;16.10;10.32;;;;;;;-1.10;92.49;97973.64;1762984;79;21552;-71
2021/01/31 07:41:54;;;;;;;16.80;10.63;;;;;;;-1.06;92.25;97983.22;1791593;79;20990;-70
2021/01/31 07:44:27;;;;;;;13.85;9.13;;;;;;;-1.03;92.08;97985.87;1785410;79;22355;-70
2021/01/31 07:46:59;;;;;;;13.75;9.43;;;;;;;-1.00;91.92;97988.52;1787969;79;21177;-70
2021/01/31 07:49:53;;;;;;;15.18;10.65;;;;;;;-0.96;91.75;97993.34;1784410;79;20984;-70
2021/01/31 07:52:25;;;;;;;15.93;10.45;;;;;;;-0.92;91.64;97996.89;1771281;79;21514;-71
2021/01/31 07:55:20;;;;;;;15.13;10.32;;;;;;;-0.88;91.57;97998.70;1783949;79;21129;-70
2021/01/31 07:58:12;;;;;;;14.30;9.80;;;;;;;-0.82;91.54;98002.70;1782598;79;21204;-69
2021/01/31 08:00:47;;;;;;;12.78;8.03;;;;;;;-0.76;91.51;98001.53;1783290;79;21742;-69
2021/01/31 08:03:37;;;;;;;13.08;7.85;;;;;;;-0.77;90.89;97996.78;1795729;78;21555;-69
2021/01/31 08:06:20;;;;;;;12.00;8.25;;;;;;;-0.78;90.48;98009.69;1794279;79;21146;-71
2021/01/31 08:08:53;;;;;;;11.60;8.48;;;;;;;-0.76;90.18;98017.06;1795386;78;27129;-69
2021/01/31 08:11:31;;;;;;;13.53;9.08;;;;;;;-0.72;90.03;98014.57;1798552;78;22165;-71
2021/01/31 08:14:03;;;;;;;12.95;8.75;;;;;;;-0.67;90.01;98018.13;1727907;78;21123;-71
2021/01/31 08:16:53;;;;;;;14.53;9.35;;;;;;;-0.61;89.74;98019.95;1726706;81;21141;-70
2021/01/31 08:19:29;;;;;;;15.65;10.50;;;;;;;-0.58;89.43;98023.03;1748693;80;21060;-70
2021/01/31 08:22:05;;;;;;;13.95;10.25;;;;;;;-0.58;89.23;98023.03;1723275;81;21148;-69
2021/01/31 08:25:03;;;;;;;15.20;10.10;;;;;;;-0.51;89.17;98029.66;1720516;81;22311;-69
2021/01/31 08:27:43;;;;;;;15.45;10.10;;;;;;;-0.48;89.00;98034.89;1750186;80;21566;-70
2021/01/31 08:30:39;;;;;;;13.72;9.25;;;;;;;-0.40;88.86;98040.25;1726317;81;21559;-71
2021/01/31 08:33:27;;;;;;;13.13;8.33;;;;;;;-0.31;88.80;98050.80;1753120;81;21188;-72
2021/01/31 08:36:09;;;;;;;13.00;8.80;;;;;;;-0.22;88.81;98053.55;1722725;81;21606;-73
2021/01/31 08:38:49;;;;;;;13.17;8.90;;;;;;;-0.15;88.74;98056.70;1753971;81;21206;-70
2021/01/31 08:41:35;;;;;;;10.68;7.80;;;;;;;-0.11;88.49;98055.92;1694726;83;21193;-69
2021/01/31 08:44:16;;;;;;;9.68;6.58;;;;;;;-0.10;87.93;98058.96;1751570;80;21049;-72
2021/01/31 08:46:59;;;;;;;12.40;7.95;;;;;;;-0.14;87.45;98061.05;1726657;81;21287;-71
2021/01/31 08:49:29;;;;;;;12.13;8.10;;;;;;;-0.11;87.13;98055.05;1753964;80;21028;-69
2021/01/31 08:52:09;;;;;;;12.63;7.78;;;;;;;-0.12;86.55;98059.78;1724699;81;21208;-72
2021/01/31 08:54:40;;;;;;;13.13;8.58;;;;;;;-0.14;86.20;98073.13;1723113;83;21069;-70
2021/01/31 08:57:13;;;;;;;12.28;8.43;;;;;;;-0.16;86.04;98069.64;1747237;80;21105;-70
2021/01/31 08:59:47;;;;;;;12.53;9.00;;;;;;;-0.14;86.07;98072.70;1726630;81;21163;-71
2021/01/31 09:02:25;;;;;;;;;;;;;;;-0.10;86.08;98078.83;1729966;81;21176;-72
2021/01/31 09:05:11;;;;;;;13.60;8.20;;;;;;;-0.03;86.09;98083.28;1729549;81;22111;-70
2021/01/31 09:07:51;;;;;;;13.90;8.20;;;;;;;-0.09;85.60;98077.98;1744725;81;21081;-71
2021/01/31 09:10:40;;;;;;;11.75;7.83;;;;;;;-0.13;85.37;98086.55;1731064;81;21580;-72
2021/01/31 09:13:30;;;;;;;12.63;7.95;;;;;;;-0.06;85.39;98084.09;1746975;81;20962;-72
2021/01/31 09:16:21;;;;;;;13.65;8.90;;;;;;;0.00;85.32;98089.84;1732584;82;21053;-70
2021/01/31 09:19:22;;;;;;;14.68;9.03;;;;;;;0.06;85.15;98080.87;1739875;81;21369;-69
2021/01/31 09:22:05;;;;;;;12.88;8.75;;;;;;;0.15;85.08;98079.75;1737258;81;21023;-69
2021/01/31 09:24:40;;;;;;;14.75;9.83;;;;;;;0.23;84.88;98083.34;1734356;81;21159;-69
2021/01/31 09:27:09;;;;;;;12.40;8.60;;;;;;;0.27;84.35;98081.25;1732836;82;21157;-68
2021/01/31 09:29:38;;;;;;;13.70;8.83;;;;;;;0.29;84.09;98078.27;1731754;81;21018;-69
2021/01/31 09:32:23;;;;;;;15.98;10.20;;;;;;;0.43;84.31;98081.51;1734164;82;22256;-69
2021/01/31 09:34:52;;;;;;;14.40;9.08;;;;;;;0.62;84.49;98088.35;1739803;81;21764;-68
2021/01/31 09:37:26;;;;;;;13.48;8.93;;;;;;;0.80;84.13;98079.97;1712570;81;21135;-68
2021/01/31 09:40:01;;;;;;;12.75;8.45;;;;;;;0.98;83.84;98079.41;1742180;81;21560;-67
2021/01/31 09:42:35;;;;;;;12.65;8.63;;;;;;;1.18;83.63;98072.76;1741158;81;21002;-67
2021/01/31 09:45:24;;;;;;;12.85;8.68;;;;;;;1.36;83.43;98074.72;1732371;82;21211;-67
2021/01/31 09:47:54;;;;;;;14.85;9.30;;;;;;;1.45;82.41;98080.49;1741087;81;21196;-68
2021/01/31 09:50:23;;;;;;;13.32;9.05;;;;;;;1.47;81.72;98086.16;1705795;82;21235;-69
2021/01/31 09:52:54;;;;;;;17.23;10.53;;;;;;;1.57;81.52;98084.55;1736052;81;21132;-68
2021/01/31 09:55:40;;;;;;;13.88;8.98;;;;;;;1.64;80.73;98079.86;1743604;80;21603;-67
2021/01/31 09:58:43;;;;;;;12.60;9.10;;;;;;;1.52;79.68;98079.29;1729470;81;21352;-66
2021/01/31 10:01:27;;;;;;;12.00;8.18;;;;;;;1.42;79.24;98076.13;1729627;81;21623;-67
2021/01/31 10:04:02;;;;;;;11.45;7.70;;;;;;;1.35;78.52;98072.98;1740070;81;21041;-69
2021/01/31 10:06:44;;;;;;;12.10;8.13;;;;;;;1.26;77.86;98074.16;1751104;81;20937;-69
2021/01/31 10:09:13;;;;;;;12.82;8.48;;;;;;;1.17;77.40;98080.53;1751172;81;20948;-68
2021/01/31 10:11:45;;;;;;;13.30;8.50;;;;;;;1.10;77.17;98079.58;1751503;81;21201;-68
2021/01/31 10:14:57;;;;;;;13.45;8.73;;;;;;;1.11;77.19;98079.15;1753258;81;21585;-68
2021/01/31 10:17:44;;;;;;;13.72;9.05;;;;;;;1.15;77.28;98082.23;1792747;79;21109;-70
2021/01/31 10:20:35;;;;;;;14.30;9.18;;;;;;;1.18;77.17;98074.05;1788077;79;21156;-67
2021/01/31 10:23:18;;;;;;;16.02;8.63;;;;;;;1.18;77.02;98080.98;1788324;79;21529;-68
2021/01/31 10:26:00;;;;;;;14.53;8.90;;;;;;;1.14;76.87;98083.09;1785438;78;21386;-68
2021/01/31 10:28:34;;;;;;;12.18;8.53;;;;;;;1.16;76.79;98084.85;1791003;78;21168;-68
2021/01/31 10:31:04;;;;;;;13.93;8.88;;;;;;;1.12;76.48;98085.66;1788413;79;20876;-68
2021/01/31 10:33:43;;;;;;;12.45;9.03;;;;;;;1.10;76.36;98089.09;1806069;79;20907;-69
2021/01/31 10:36:33;;;;;;;13.40;8.50;;;;;;;1.10;76.37;98088.66;1788433;78;21457;-70
2021/01/31 10:39:17;;;;;;;17.50;10.15;;;;;;;1.16;76.47;98100.44;1793367;79;21472;-69
2021/01/31 10:41:47;;;;;;;14.78;9.78;;;;;;;1.19;76.45;98090.09;1729479;81;21215;-69
2021/01/31 10:44:26;;;;;;;15.00;9.60;;;;;;;1.21;76.39;98092.28;1736482;81;21198;-68
2021/01/31 10:46:55;;;;;;;15.18;10.05;;;;;;;1.25;76.49;98087.58;1712135;82;21160;-68
2021/01/31 10:49:24;;;;;;;16.23;10.50;;;;;;;1.32;76.51;98086.36;1791223;78;20990;-70
2021/01/31 10:51:54;;;;;;;14.25;9.85;;;;;;;1.21;76.10;98092.28;1784160;79;21194;-68
2021/01/31 10:54:23;;;;;;;15.32;10.58;;;;;;;1.18;76.09;98105.23;1798320;78;21021;-71
2021/01/31 10:56:54;;;;;;;16.82;10.05;;;;;;;1.19;76.16;98106.09;1777633;79;20975;-68
2021/01/31 10:59:23;;;;;;;14.75;10.43;;;;;;;1.15;76.10;98107.78;1784709;78;20930;-70
2021/01/31 11:01:53;;;;;;;16.90;11.33;;;;;;;1.16;76.45;98106.93;1806206;78;21557;-67
2021/01/31 11:04:26;;;;;;;17.52;11.22;;;;;;;1.22;76.81;98111.34;1792090;77;21437;-67
2021/01/31 11:06:56;;;;;;;13.25;9.20;;;;;;;1.25;76.87;98109.66;1692230;83;20999;-60
2021/01/31 11:09:26;;;;;;;12.73;9.40;;;;;;;1.22;76.58;98098.34;1737400;82;20986;-66
2021/01/31 11:11:55;;;;;;;14.47;9.65;;;;;;;1.15;76.37;98096.52;1733640;81;21046;-65
2021/01/31 11:14:25;;;;;;;17.25;10.80;;;;;;;1.15;76.52;98090.90;1785117;78;21196;-66
2021/01/31 11:16:58;;;;;;;18.00;10.75;;;;;;;1.16;76.63;98091.34;1781801;78;21149;-67
2021/01/31 11:19:27;;;;;;;16.60;10.85;;;;;;;1.13;76.57;98095.63;1779027;78;21118;-68
2021/01/31 11:21:58;;;;;;;15.25;9.88;;;;;;;1.11;76.69;98092.13;1784556;78;20967;-67
2021/01/31 11:24:28;;;;;;;17.20;10.63;;;;;;;1.11;76.80;98104.69;1785015;79;21125;-67
2021/01/31 11:27:01;;;;;;;16.27;10.78;;;;;;;1.11;76.76;98104.69;1724026;82;21586;-66
2021/01/31 11:29:30;;;;;;;15.43;10.75;;;;;;;1.12;76.90;98112.06;1736727;82;21421;-67
2021/01/31 11:32:00;;;;;;;16.20;10.68;;;;;;;1.16;76.97;98115.15;1780004;79;21073;-69
2021/01/31 11:34:29;;;;;;;18.95;11.57;;;;;;;1.18;76.97;98110.42;1723567;81;21048;-67
2021/01/31 11:37:02;;;;;;;17.92;11.03;;;;;;;1.18;76.93;98111.72;1722222;81;21255;-70
2021/01/31 11:39:31;;;;;;;16.23;11.10;;;;;;;1.16;76.99;98115.15;1755653;79;21125;-70
2021/01/31 11:42:00;;;;;;;16.42;11.33;;;;;;;1.18;77.12;98117.34;1764416;79;21477;-69
2021/01/31 11:44:30;;;;;;;18.85;12.78;;;;;;;1.24;77.15;98121.32;1763633;79;20942;-68
2021/01/31 11:46:59;;;;;;;27.95;17.15;;;;;;;1.26;76.79;98129.59;1753688;79;21005;-67
2021/01/31 11:49:28;;;;;;;24.72;15.15;;;;;;;1.26;76.34;98133.91;1711093;81;21588;-62
2021/01/31 11:52:00;;;;;;;22.42;14.50;;;;;;;1.29;76.45;98136.55;1712804;83;21075;-66
2021/01/31 11:54:29;;;;;;;19.75;12.35;;;;;;;1.31;76.30;98139.16;1704136;82;21218;-66
2021/01/31 11:57:00;;;;;;;17.87;11.85;;;;;;;1.34;76.19;98142.68;1698524;83;21525;-66
2021/01/31 11:59:29;;;;;;;20.43;12.45;;;;;;;1.35;75.87;98143.55;1713684;82;21007;-67
2021/01/31 12:01:58;;;;;;;17.95;12.03;;;;;;;1.34;75.64;98147.88;1713406;83;21146;-68
2021/01/31 12:04:32;;;;;;;20.32;13.90;;;;;;;1.36;75.79;98149.20;1743548;80;21602;-67
2021/01/31 12:07:01;;;;;;;33.15;20.68;;;;;;;1.36;75.71;98151.38;1736855;81;21378;-66
2021/01/31 12:09:33;;;;;;;32.08;20.77;;;;;;;1.36;75.43;98151.80;1725680;81;21097;-68
2021/01/31 12:12:03;;;;;;;25.20;16.33;;;;;;;1.35;75.35;98152.65;1752112;80;21126;-68
2021/01/31 12:14:32;;;;;;;22.82;14.45;;;;;;;1.34;75.31;98163.47;1736748;80;21073;-68